Corbin Foss — WDB5265 — position and weather

sailwx.info

Track history (hours):
 
Tides and Currents Weather Stations Pressure Air Temp Water Temp Dewpoint Dewpoint Depression Visibility Wind Speed Wind Dir Waves Ship Positions

Corbin Foss

More information available from US FCC via Universal Licensing System and Coast Guard Vessel Documentation Center.

Last reported at 2014-Aug-25 05:30 UTC. Time now 2014-Aug-29 12:21 UTC.
Position N 28°11' W 116°23'.

Type: Towing. MMSI: 366902220.

Date/timePositionNaut miles runAvg speedWind from/ knotsBaromVisibWave heightAir tempDewpointWater temp
2014-Aug-25 05:30N 28°11' W 116°23'5 4.4
2014-Aug-25 04:19N 28°06' W 116°22'7 4.1
2014-Aug-25 02:32N 27°59' W 116°21'  
2014-Aug-20 04:18N 31°25' W 117°32'5 5.9
2014-Aug-20 03:31N 31°30' W 117°33'18 5.9
2014-Aug-20 00:30N 31°47' W 117°37'6 5.9
2014-Aug-19 23:34N 31°53' W 117°39'6 6.0
2014-Aug-19 22:32N 31°58' W 117°41'6 5.8
2014-Aug-19 21:27N 32°04' W 117°43'5 5.7
2014-Aug-19 20:34N 32°09' W 117°45'6 5.8
2014-Aug-19 19:33N 32°15' W 117°46'5 5.5
2014-Aug-19 18:34N 32°20' W 117°48'6 5.8
2014-Aug-19 17:29N 32°26' W 117°50'5 5.4
2014-Aug-19 16:33N 32°31' W 117°52'5 5.3
2014-Aug-19 15:33N 32°36' W 117°54'5 5.4
2014-Aug-19 14:33N 32°41' W 117°55'5 5.2
2014-Aug-19 13:33N 32°46' W 117°57'5 5.1
2014-Aug-19 12:33N 32°51' W 117°58'5 5.4
2014-Aug-19 11:33N 32°57' W 117°60'6 5.7
2014-Aug-19 10:33N 33°02' W 118°01'6 5.9
2014-Aug-19 09:33N 33°08' W 118°03'6 6.0
2014-Aug-19 08:33N 33°14' W 118°05'6 5.7
2014-Aug-19 07:33N 33°19' W 118°06'6 5.7
2014-Aug-19 06:31N 33°25' W 118°08'5 5.6
2014-Aug-19 05:33N 33°30' W 118°11'5 5.3
2014-Aug-19 04:33N 33°35' W 118°12'5 5.4
2014-Aug-19 03:33N 33°40' W 118°09'1 1.3
2014-Aug-19 02:33N 33°41' W 118°08'5 4.8
2014-Aug-19 01:33N 33°42' W 118°13'3 3.2
2014-Aug-19 00:30N 33°44' W 118°16'0 0.0
2014-Aug-18 22:24N 33°44' W 118°16'0 0.0
2014-Aug-18 21:33N 33°44' W 118°16'3 2.6
2014-Aug-18 20:33N 33°42' W 118°15'6 5.7
2014-Aug-18 19:33N 33°41' W 118°08'7 3.3
2014-Aug-18 17:32N 33°36' W 118°14'4 4.5
2014-Aug-18 16:33N 33°35' W 118°19'5 5.3
2014-Aug-18 15:34N 33°36' W 118°25'4 3.9
2014-Aug-18 14:33N 33°37' W 118°30'5 4.5
2014-Aug-18 13:33N 33°38' W 118°35'5 4.6
2014-Aug-18 12:33N 33°39' W 118°40'6 4.6
2014-Aug-18 11:18N 33°40' W 118°47'3 4.7
2014-Aug-18 10:33N 33°40' W 118°51'5 4.6
2014-Aug-18 09:29N 33°41' W 118°57'4 4.4
2014-Aug-18 08:33N 33°42' W 119°02'5 4.7
2014-Aug-18 07:33N 33°40' W 119°07'19 4.5
2014-Aug-18 03:25N 33°37' W 119°29'10 4.3
2014-Aug-18 01:06N 33°37' W 119°42'4 4.0
2014-Aug-18 00:12N 33°36' W 119°46'23 4.0
2014-Aug-17 18:33N 33°35' W 120°13'4 4.4
2014-Aug-17 17:33N 33°35' W 120°18'4 4.5
2014-Aug-17 16:33N 33°35' W 120°23'4 4.4
2014-Aug-17 15:33N 33°35' W 120°28'4 4.3
2014-Aug-17 14:33N 33°35' W 120°34'4 4.4
2014-Aug-17 13:33N 33°36' W 120°39'4 4.4
2014-Aug-17 12:33N 33°36' W 120°44'5 4.7
2014-Aug-17 11:33N 33°36' W 120°50'5 4.6
2014-Aug-17 10:33N 33°35' W 120°56'4 4.4
2014-Aug-17 09:33N 33°35' W 121°01'4 4.4
2014-Aug-17 08:33N 33°35' W 121°06'5 4.5
2014-Aug-17 07:33N 33°35' W 121°12'5 4.6
2014-Aug-17 06:24N 33°34' W 121°18'4 4.6
2014-Aug-17 05:33N 33°34' W 121°23'5 4.5
2014-Aug-17 04:33N 33°33' W 121°28'5 4.8
2014-Aug-17 03:33N 33°34' W 121°34'5 5.4
2014-Aug-17 02:33N 33°38' W 121°37'6 5.9
2014-Aug-17 01:33N 33°44' W 121°40'6 5.8
2014-Aug-17 00:33N 33°49' W 121°43'6 5.7
2014-Aug-16 23:33N 33°54' W 121°46'6 5.6
2014-Aug-16 22:33N 33°59' W 121°49'5 5.4
2014-Aug-16 21:33N 34°04' W 121°53'5 5.3
2014-Aug-16 20:33N 34°09' W 121°56'5 5.5
2014-Aug-16 19:33N 34°13' W 121°59'5 5.5
2014-Aug-16 18:33N 34°18' W 122°03'5 5.4
2014-Aug-16 17:33N 34°22' W 122°07'5 5.2
2014-Aug-16 16:33N 34°26' W 122°10'5 5.1
2014-Aug-16 15:33N 34°31' W 122°13'5 5.2
2014-Aug-16 14:33N 34°35' W 122°16'6 6.0
2014-Aug-16 13:33N 34°41' W 122°20'6 6.0
2014-Aug-16 12:33N 34°46' W 122°24'6 5.8
2014-Aug-16 11:32N 34°51' W 122°28'6 5.3
2014-Aug-16 10:25N 34°55' W 122°32'5 5.6
2014-Aug-16 09:33N 34°59' W 122°36'6 5.5
2014-Aug-16 08:33N 35°04' W 122°39'6 5.7
2014-Aug-16 07:33N 35°09' W 122°43'6 5.6
2014-Aug-16 06:33N 35°13' W 122°47'6 5.7
2014-Aug-16 05:30N 35°18' W 122°51'5 5.5
2014-Aug-16 04:33N 35°22' W 122°55'6 5.9
2014-Aug-16 03:33N 35°27' W 122°60'6 6.0
2014-Aug-16 02:33N 35°32' W 123°04'6 5.5
2014-Aug-16 01:33N 35°36' W 123°08'6 5.7
2014-Aug-16 00:33N 35°41' W 123°12'6 6.0
2014-Aug-15 23:33N 35°46' W 123°15'6 6.2
2014-Aug-15 22:33N 35°52' W 123°18'6 5.6
2014-Aug-15 21:33N 35°57' W 123°21'6 6.0
2014-Aug-15 20:33N 36°02' W 123°24'6 6.1
2014-Aug-15 19:30N 36°08' W 123°28'6 6.2
2014-Aug-15 18:33N 36°13' W 123°31'7 6.1
2014-Aug-15 17:22N 36°20' W 123°36'24 5.9
2014-Aug-15 13:17N 36°40' W 123°51'4 5.6
2014-Aug-15 12:31N 36°44' W 123°54'5 5.7
2014-Aug-15 11:33N 36°48' W 123°58'7 5.7
2014-Aug-15 10:24N 36°54' W 124°03'7 5.5
2014-Aug-15 09:13N 36°59' W 124°08'  
Track history (hours):
 
Tides and Currents Weather Stations Pressure Air Temp Water Temp Dewpoint Dewpoint Depression Visibility Wind Speed Wind Dir Waves Ship Positions

Corbin Foss

More information available from US FCC via Universal Licensing System and Coast Guard Vessel Documentation Center.

Last reported at 2014-Aug-25 05:30 UTC. Time now 2014-Aug-29 12:21 UTC.
Position N 28°11' W 116°23'.

Type: Towing. MMSI: 366902220.

Date/timePositionNaut miles runAvg speedWind from/ knotsBaromVisibWave heightAir tempDewpointWater temp
2014-Aug-25 05:30N 28°11' W 116°23'5 4.4
2014-Aug-25 04:19N 28°06' W 116°22'7 4.1
2014-Aug-25 02:32N 27°59' W 116°21'  
2014-Aug-20 04:18N 31°25' W 117°32'5 5.9
2014-Aug-20 03:31N 31°30' W 117°33'18 5.9
2014-Aug-20 00:30N 31°47' W 117°37'6 5.9
2014-Aug-19 23:34N 31°53' W 117°39'6 6.0
2014-Aug-19 22:32N 31°58' W 117°41'6 5.8
2014-Aug-19 21:27N 32°04' W 117°43'5 5.7
2014-Aug-19 20:34N 32°09' W 117°45'6 5.8
2014-Aug-19 19:33N 32°15' W 117°46'5 5.5
2014-Aug-19 18:34N 32°20' W 117°48'6 5.8
2014-Aug-19 17:29N 32°26' W 117°50'5 5.4
2014-Aug-19 16:33N 32°31' W 117°52'5 5.3
2014-Aug-19 15:33N 32°36' W 117°54'5 5.4
2014-Aug-19 14:33N 32°41' W 117°55'5 5.2
2014-Aug-19 13:33N 32°46' W 117°57'5 5.1
2014-Aug-19 12:33N 32°51' W 117°58'5 5.4
2014-Aug-19 11:33N 32°57' W 117°60'6 5.7
2014-Aug-19 10:33N 33°02' W 118°01'6 5.9
2014-Aug-19 09:33N 33°08' W 118°03'6 6.0
2014-Aug-19 08:33N 33°14' W 118°05'6 5.7
2014-Aug-19 07:33N 33°19' W 118°06'6 5.7
2014-Aug-19 06:31N 33°25' W 118°08'5 5.6
2014-Aug-19 05:33N 33°30' W 118°11'5 5.3
2014-Aug-19 04:33N 33°35' W 118°12'5 5.4
2014-Aug-19 03:33N 33°40' W 118°09'1 1.3
2014-Aug-19 02:33N 33°41' W 118°08'5 4.8
2014-Aug-19 01:33N 33°42' W 118°13'3 3.2
2014-Aug-19 00:30N 33°44' W 118°16'0 0.0
2014-Aug-18 22:24N 33°44' W 118°16'0 0.0
2014-Aug-18 21:33N 33°44' W 118°16'3 2.6
2014-Aug-18 20:33N 33°42' W 118°15'6 5.7
2014-Aug-18 19:33N 33°41' W 118°08'7 3.3
2014-Aug-18 17:32N 33°36' W 118°14'4 4.5
2014-Aug-18 16:33N 33°35' W 118°19'5 5.3
2014-Aug-18 15:34N 33°36' W 118°25'4 3.9
2014-Aug-18 14:33N 33°37' W 118°30'5 4.5
2014-Aug-18 13:33N 33°38' W 118°35'5 4.6
2014-Aug-18 12:33N 33°39' W 118°40'6 4.6
2014-Aug-18 11:18N 33°40' W 118°47'3 4.7
2014-Aug-18 10:33N 33°40' W 118°51'5 4.6
2014-Aug-18 09:29N 33°41' W 118°57'4 4.4
2014-Aug-18 08:33N 33°42' W 119°02'5 4.7
2014-Aug-18 07:33N 33°40' W 119°07'19 4.5
2014-Aug-18 03:25N 33°37' W 119°29'10 4.3
2014-Aug-18 01:06N 33°37' W 119°42'4 4.0
2014-Aug-18 00:12N 33°36' W 119°46'23 4.0
2014-Aug-17 18:33N 33°35' W 120°13'4 4.4
2014-Aug-17 17:33N 33°35' W 120°18'4 4.5
2014-Aug-17 16:33N 33°35' W 120°23'4 4.4
2014-Aug-17 15:33N 33°35' W 120°28'4 4.3
2014-Aug-17 14:33N 33°35' W 120°34'4 4.4
2014-Aug-17 13:33N 33°36' W 120°39'4 4.4
2014-Aug-17 12:33N 33°36' W 120°44'5 4.7
2014-Aug-17 11:33N 33°36' W 120°50'5 4.6
2014-Aug-17 10:33N 33°35' W 120°56'4 4.4
2014-Aug-17 09:33N 33°35' W 121°01'4 4.4
2014-Aug-17 08:33N 33°35' W 121°06'5 4.5
2014-Aug-17 07:33N 33°35' W 121°12'5 4.6
2014-Aug-17 06:24N 33°34' W 121°18'4 4.6
2014-Aug-17 05:33N 33°34' W 121°23'5 4.5
2014-Aug-17 04:33N 33°33' W 121°28'5 4.8
2014-Aug-17 03:33N 33°34' W 121°34'5 5.4
2014-Aug-17 02:33N 33°38' W 121°37'6 5.9
2014-Aug-17 01:33N 33°44' W 121°40'6 5.8
2014-Aug-17 00:33N 33°49' W 121°43'6 5.7
2014-Aug-16 23:33N 33°54' W 121°46'6 5.6
2014-Aug-16 22:33N 33°59' W 121°49'5 5.4
2014-Aug-16 21:33N 34°04' W 121°53'5 5.3
2014-Aug-16 20:33N 34°09' W 121°56'5 5.5
2014-Aug-16 19:33N 34°13' W 121°59'5 5.5
2014-Aug-16 18:33N 34°18' W 122°03'5 5.4
2014-Aug-16 17:33N 34°22' W 122°07'5 5.2
2014-Aug-16 16:33N 34°26' W 122°10'5 5.1
2014-Aug-16 15:33N 34°31' W 122°13'5 5.2
2014-Aug-16 14:33N 34°35' W 122°16'6 6.0
2014-Aug-16 13:33N 34°41' W 122°20'6 6.0
2014-Aug-16 12:33N 34°46' W 122°24'6 5.8
2014-Aug-16 11:32N 34°51' W 122°28'6 5.3
2014-Aug-16 10:25N 34°55' W 122°32'5 5.6
2014-Aug-16 09:33N 34°59' W 122°36'6 5.5
2014-Aug-16 08:33N 35°04' W 122°39'6 5.7
2014-Aug-16 07:33N 35°09' W 122°43'6 5.6
2014-Aug-16 06:33N 35°13' W 122°47'6 5.7
2014-Aug-16 05:30N 35°18' W 122°51'5 5.5
2014-Aug-16 04:33N 35°22' W 122°55'6 5.9
2014-Aug-16 03:33N 35°27' W 122°60'6 6.0
2014-Aug-16 02:33N 35°32' W 123°04'6 5.5
2014-Aug-16 01:33N 35°36' W 123°08'6 5.7
2014-Aug-16 00:33N 35°41' W 123°12'6 6.0
2014-Aug-15 23:33N 35°46' W 123°15'6 6.2
2014-Aug-15 22:33N 35°52' W 123°18'6 5.6
2014-Aug-15 21:33N 35°57' W 123°21'6 6.0
2014-Aug-15 20:33N 36°02' W 123°24'6 6.1
2014-Aug-15 19:30N 36°08' W 123°28'6 6.2
2014-Aug-15 18:33N 36°13' W 123°31'7 6.1
2014-Aug-15 17:22N 36°20' W 123°36'24 5.9
2014-Aug-15 13:17N 36°40' W 123°51'4 5.6
2014-Aug-15 12:31N 36°44' W 123°54'5 5.7
2014-Aug-15 11:33N 36°48' W 123°58'7 5.7
2014-Aug-15 10:24N 36°54' W 124°03'7 5.5
2014-Aug-15 09:13N 36°59' W 124°08'  

Dump ship's entire track history